Atlasgracht — PCVX — position and weather

sailwx.info

Track history (hours):
 
Tides and Currents Weather Stations Pressure Air Temp Water Temp Dewpoint Dewpoint Depression Visibility Wind Speed Wind Dir Waves Ship Positions

Atlasgracht

Last reported at 2017-Sep-01 04:04 UTC. Time now 2017-Nov-24 12:59 UTC.
Position N 25°19' W 079°52'.
Warning: this ship's position is months out of date.

Length 130 m; beam 19 m; draft 9 m.

Type: Ship (hazmat cat C). MMSI: 244060802.

Date/timePositionNaut miles runAvg speedWind from/ knotsBaromVisibWave heightAir tempDewpointWater temp
2017-Sep-01 04:04N 25°19' W 079°52'110.0
2017-Sep-01 04:00N 25°20' W 079°52'510.0
2017-Sep-01 03:30N 25°24' W 079°50'510.0
2017-Sep-01 03:00N 25°29' W 079°48'510.0
2017-Sep-01 02:30N 25°34' W 079°46'510.0
2017-Sep-01 02:00N 25°38' W 079°44'510.1
2017-Sep-01 01:29N 25°43' W 079°42'510.3
2017-Sep-01 00:58N 25°48' W 079°39'510.5
2017-Sep-01 00:30N 25°52' W 079°37'1811.1
2017-Aug-31 22:54N 26°06' W 079°25'611.5
2017-Aug-31 22:25N 26°11' W 079°22'611.9
2017-Aug-31 21:53N 26°14' W 079°15'  
2017-Aug-23 23:21N 36°05' W 033°05'812.9
2017-Aug-23 22:44N 36°08' W 032°55'313.0
2017-Aug-23 22:30N 36°08' W 032°52'12013.0
2017-Aug-23 13:19N 36°40' W 030°28'9412.8
2017-Aug-23 05:57N 37°05' W 028°34'612.7
2017-Aug-23 05:30N 37°07' W 028°27'1012.5
2017-Aug-23 04:41N 37°09' W 028°15'212.1
2017-Aug-23 04:30N 37°10' W 028°12'712.5
2017-Aug-23 03:58N 37°12' W 028°04'612.3
2017-Aug-23 03:30N 37°13' W 027°57'612.0
2017-Aug-23 03:00N 37°15' W 027°50'911.3
2017-Aug-23 02:15N 37°17' W 027°40'1811.9
2017-Aug-23 00:44N 37°22' W 027°18'311.5
2017-Aug-23 00:30N 37°22' W 027°15'611.8
2017-Aug-23 00:00N 37°24' W 027°08'612.0
2017-Aug-22 23:30N 37°26' W 027°00'611.9
2017-Aug-22 23:00N 37°27' W 026°53'611.4
2017-Aug-22 22:30N 37°29' W 026°46'611.7
2017-Aug-22 22:00N 37°30' W 026°39'612.5
2017-Aug-22 21:30N 37°32' W 026°31'612.6
2017-Aug-22 21:00N 37°34' W 026°24'612.8
2017-Aug-22 20:30N 37°35' W 026°16'612.2
2017-Aug-22 20:00N 37°37' W 026°09'612.5
2017-Aug-22 19:30N 37°39' W 026°01'612.7
2017-Aug-22 19:00N 37°40' W 025°53'612.1
2017-Aug-22 18:31N 37°42' W 025°46'611.3
2017-Aug-22 18:00N 37°44' W 025°39'1 1.1
2017-Aug-22 17:30N 37°44' W 025°40'0 0.0
2017-Aug-22 17:01N 37°44' W 025°40'0 0.0
2017-Aug-22 16:30N 37°44' W 025°40'0 0.0
2017-Aug-22 16:00N 37°44' W 025°40'0 0.0
2017-Aug-22 15:30N 37°44' W 025°40'0 0.0
2017-Aug-22 15:00N 37°44' W 025°40'0 0.4
2017-Aug-22 14:31N 37°44' W 025°40'1 2.5
2017-Aug-22 14:00N 37°43' W 025°39'1 2.3
2017-Aug-22 13:30N 37°42' W 025°38'0 0.0
2017-Aug-22 13:00N 37°42' W 025°38'0 0.0
2017-Aug-22 12:30N 37°42' W 025°38'0 0.0
2017-Aug-22 12:00N 37°42' W 025°38'0 0.0
2017-Aug-22 11:30N 37°42' W 025°38'0 0.0
2017-Aug-22 11:00N 37°42' W 025°38'3 6.7
2017-Aug-22 10:31N 37°40' W 025°35'510.0
2017-Aug-22 10:00N 37°39' W 025°29'4 8.0
2017-Aug-22 09:30N 37°39' W 025°24'3 6.6
2017-Aug-22 09:01N 37°40' W 025°19'3 6.7
2017-Aug-22 08:30N 37°40' W 025°15'3 7.0
2017-Aug-22 08:00N 37°41' W 025°11'4 8.0
2017-Aug-22 07:30N 37°42' W 025°06'5 9.4
2017-Aug-22 07:00N 37°45' W 025°01'4 8.5
2017-Aug-22 06:30N 37°47' W 024°57'4 8.4
2017-Aug-22 06:01N 37°50' W 024°53'4 8.9
2017-Aug-22 05:30N 37°52' W 024°48'5 9.2
2017-Aug-22 05:00N 37°55' W 024°43'5 9.3
2017-Aug-22 04:31N 37°58' W 024°38'  
Track history (hours):
 
Tides and Currents Weather Stations Pressure Air Temp Water Temp Dewpoint Dewpoint Depression Visibility Wind Speed Wind Dir Waves Ship Positions

Atlasgracht

Last reported at 2017-Sep-01 04:04 UTC. Time now 2017-Nov-24 12:59 UTC.
Position N 25°19' W 079°52'.
Warning: this ship's position is months out of date.

Length 130 m; beam 19 m; draft 9 m.

Type: Ship (hazmat cat C). MMSI: 244060802.

Date/timePositionNaut miles runAvg speedWind from/ knotsBaromVisibWave heightAir tempDewpointWater temp
2017-Sep-01 04:04N 25°19' W 079°52'110.0
2017-Sep-01 04:00N 25°20' W 079°52'510.0
2017-Sep-01 03:30N 25°24' W 079°50'510.0
2017-Sep-01 03:00N 25°29' W 079°48'510.0
2017-Sep-01 02:30N 25°34' W 079°46'510.0
2017-Sep-01 02:00N 25°38' W 079°44'510.1
2017-Sep-01 01:29N 25°43' W 079°42'510.3
2017-Sep-01 00:58N 25°48' W 079°39'510.5
2017-Sep-01 00:30N 25°52' W 079°37'1811.1
2017-Aug-31 22:54N 26°06' W 079°25'611.5
2017-Aug-31 22:25N 26°11' W 079°22'611.9
2017-Aug-31 21:53N 26°14' W 079°15'  
2017-Aug-23 23:21N 36°05' W 033°05'812.9
2017-Aug-23 22:44N 36°08' W 032°55'313.0
2017-Aug-23 22:30N 36°08' W 032°52'12013.0
2017-Aug-23 13:19N 36°40' W 030°28'9412.8
2017-Aug-23 05:57N 37°05' W 028°34'612.7
2017-Aug-23 05:30N 37°07' W 028°27'1012.5
2017-Aug-23 04:41N 37°09' W 028°15'212.1
2017-Aug-23 04:30N 37°10' W 028°12'712.5
2017-Aug-23 03:58N 37°12' W 028°04'612.3
2017-Aug-23 03:30N 37°13' W 027°57'612.0
2017-Aug-23 03:00N 37°15' W 027°50'911.3
2017-Aug-23 02:15N 37°17' W 027°40'1811.9
2017-Aug-23 00:44N 37°22' W 027°18'311.5
2017-Aug-23 00:30N 37°22' W 027°15'611.8
2017-Aug-23 00:00N 37°24' W 027°08'612.0
2017-Aug-22 23:30N 37°26' W 027°00'611.9
2017-Aug-22 23:00N 37°27' W 026°53'611.4
2017-Aug-22 22:30N 37°29' W 026°46'611.7
2017-Aug-22 22:00N 37°30' W 026°39'612.5
2017-Aug-22 21:30N 37°32' W 026°31'612.6
2017-Aug-22 21:00N 37°34' W 026°24'612.8
2017-Aug-22 20:30N 37°35' W 026°16'612.2
2017-Aug-22 20:00N 37°37' W 026°09'612.5
2017-Aug-22 19:30N 37°39' W 026°01'612.7
2017-Aug-22 19:00N 37°40' W 025°53'612.1
2017-Aug-22 18:31N 37°42' W 025°46'611.3
2017-Aug-22 18:00N 37°44' W 025°39'1 1.1
2017-Aug-22 17:30N 37°44' W 025°40'0 0.0
2017-Aug-22 17:01N 37°44' W 025°40'0 0.0
2017-Aug-22 16:30N 37°44' W 025°40'0 0.0
2017-Aug-22 16:00N 37°44' W 025°40'0 0.0
2017-Aug-22 15:30N 37°44' W 025°40'0 0.0
2017-Aug-22 15:00N 37°44' W 025°40'0 0.4
2017-Aug-22 14:31N 37°44' W 025°40'1 2.5
2017-Aug-22 14:00N 37°43' W 025°39'1 2.3
2017-Aug-22 13:30N 37°42' W 025°38'0 0.0
2017-Aug-22 13:00N 37°42' W 025°38'0 0.0
2017-Aug-22 12:30N 37°42' W 025°38'0 0.0
2017-Aug-22 12:00N 37°42' W 025°38'0 0.0
2017-Aug-22 11:30N 37°42' W 025°38'0 0.0
2017-Aug-22 11:00N 37°42' W 025°38'3 6.7
2017-Aug-22 10:31N 37°40' W 025°35'510.0
2017-Aug-22 10:00N 37°39' W 025°29'4 8.0
2017-Aug-22 09:30N 37°39' W 025°24'3 6.6
2017-Aug-22 09:01N 37°40' W 025°19'3 6.7
2017-Aug-22 08:30N 37°40' W 025°15'3 7.0
2017-Aug-22 08:00N 37°41' W 025°11'4 8.0
2017-Aug-22 07:30N 37°42' W 025°06'5 9.4
2017-Aug-22 07:00N 37°45' W 025°01'4 8.5
2017-Aug-22 06:30N 37°47' W 024°57'4 8.4
2017-Aug-22 06:01N 37°50' W 024°53'4 8.9
2017-Aug-22 05:30N 37°52' W 024°48'5 9.2
2017-Aug-22 05:00N 37°55' W 024°43'5 9.3
2017-Aug-22 04:31N 37°58' W 024°38'  

Dump ship's entire track history